Time;durP1;ratioP1;P1;durP2;ratioP2;P2;SDS_P1;SDS_P2;PMS_P1;PMS_P2;Temp;Humidity;BMP_temperature;BMP_pressure;BME280_temperature;BME280_humidity;BME280_pressure;Samples;Min_cycle;Max_cycle;Signal;HPM_P1;HPM_P2
2023/03/17 00:00:48;;;;;;;14.40;6.57;;;;;;;;;;6212630;23;20422;-65
2023/03/17 00:03:24;;;;;;;10.95;5.82;;;;;;;;;;6212606;23;20036;-65
2023/03/17 00:05:52;;;;;;;11.30;5.15;;;;;;;;;;6212726;23;20463;-71
2023/03/17 00:08:26;;;;;;;11.48;5.85;;;;;;;;;;6212702;23;20028;-66
2023/03/17 00:10:52;;;;;;;12.18;5.78;;;;;;;;;;6213101;23;20005;-70
2023/03/17 00:13:18;;;;;;;14.13;6.20;;;;;;;;;;6212834;23;20027;-66
2023/03/17 00:15:46;;;;;;;14.27;7.28;;;;;;;;;;6212622;23;20536;-66
2023/03/17 00:18:16;;;;;;;13.05;6.20;;;;;;;;;;6212591;23;20028;-65
2023/03/17 00:20:43;;;;;;;14.10;6.10;;;;;;;;;;6212311;23;20004;-65
2023/03/17 00:23:14;;;;;;;12.60;4.95;;;;;;;;;;6212561;23;20005;-65
2023/03/17 00:25:42;;;;;;;12.48;5.60;;;;;;;;;;6212535;23;20061;-65
2023/03/17 00:28:21;;;;;;;11.13;4.75;;;;;;;;;;6212158;23;20440;-65
2023/03/17 00:30:48;;;;;;;13.90;5.28;;;;;;;;;;6212208;23;20013;-65
2023/03/17 00:33:15;;;;;;;11.57;5.10;;;;;;;;;;6212656;23;20384;-65
2023/03/17 00:35:42;;;;;;;12.77;5.15;;;;;;;;;;6212755;23;20001;-65
2023/03/17 00:38:16;;;;;;;10.85;5.05;;;;;;;;;;6213720;23;20008;-65
2023/03/17 00:40:42;;;;;;;11.63;4.93;;;;;;;;;;6214938;23;20004;-65
2023/03/17 00:43:08;;;;;;;11.85;6.22;;;;;;;;;;6214553;23;20058;-64
2023/03/17 00:45:34;;;;;;;16.20;6.38;;;;;;;;;;6214762;23;20036;-65
2023/03/17 00:48:02;;;;;;;14.80;5.80;;;;;;;;;;6213919;23;20003;-65
2023/03/17 00:50:28;;;;;;;13.25;6.82;;;;;;;;;;6214245;23;20001;-71
2023/03/17 00:52:55;;;;;;;13.80;6.20;;;;;;;;;;6214410;23;20465;-65
2023/03/17 00:55:22;;;;;;;15.23;7.18;;;;;;;;;;6214422;23;20499;-65
2023/03/17 00:57:48;;;;;;;12.88;6.03;;;;;;;;;;6214156;23;20001;-64
2023/03/17 01:00:19;;;;;;;12.48;6.18;;;;;;;;;;6214037;23;20063;-64
2023/03/17 01:02:46;;;;;;;13.38;6.30;;;;;;;;;;6213938;23;20013;-64
2023/03/17 01:05:12;;;;;;;15.77;5.47;;;;;;;;;;6214517;23;19996;-64
2023/03/17 01:07:39;;;;;;;13.15;5.95;;;;;;;;;;6213680;23;20422;-64
2023/03/17 01:10:20;;;;;;;17.08;6.47;;;;;;;;;;6214259;23;19996;-67
2023/03/17 01:12:46;;;;;;;13.25;5.80;;;;;;;;;;6214247;23;20036;-64
2023/03/17 01:15:13;;;;;;;14.00;6.18;;;;;;;;;;6214131;23;20426;-64
2023/03/17 01:17:40;;;;;;;14.38;6.00;;;;;;;;;;6213925;23;20012;-65
2023/03/17 01:20:07;;;;;;;16.55;7.07;;;;;;;;;;6214057;23;20008;-71
2023/03/17 01:22:34;;;;;;;16.83;7.60;;;;;;;;;;6213921;23;20040;-66
2023/03/17 01:25:01;;;;;;;14.43;7.07;;;;;;;;;;6214093;23;20536;-65
2023/03/17 01:27:27;;;;;;;16.30;7.13;;;;;;;;;;6213731;23;20087;-64
2023/03/17 01:29:54;;;;;;;12.55;7.20;;;;;;;;;;6213779;23;20453;-65
2023/03/17 01:32:21;;;;;;;15.77;7.70;;;;;;;;;;6213663;23;20045;-66
2023/03/17 01:34:47;;;;;;;17.45;6.88;;;;;;;;;;6214261;23;20004;-64
2023/03/17 01:37:13;;;;;;;13.32;5.82;;;;;;;;;;6213940;23;20004;-64
2023/03/17 01:39:40;;;;;;;14.45;7.40;;;;;;;;;;6214333;23;20015;-65
2023/03/17 01:42:07;;;;;;;14.95;7.82;;;;;;;;;;6213813;23;20011;-64
2023/03/17 01:44:33;;;;;;;17.30;7.93;;;;;;;;;;6214043;23;20102;-64
2023/03/17 01:46:59;;;;;;;17.77;7.78;;;;;;;;;;6213916;23;20008;-64
2023/03/17 01:49:25;;;;;;;14.32;6.88;;;;;;;;;;6213146;23;20008;-68
2023/03/17 01:51:51;;;;;;;12.73;6.60;;;;;;;;;;6213665;23;20013;-66
2023/03/17 01:54:27;;;;;;;15.95;7.25;;;;;;;;;;6213946;23;20064;-64
2023/03/17 01:56:56;;;;;;;14.98;7.53;;;;;;;;;;6213689;23;20001;-69
2023/03/17 01:59:25;;;;;;;16.38;6.75;;;;;;;;;;6213442;23;20013;-64
2023/03/17 02:01:54;;;;;;;13.15;6.55;;;;;;;;;;6213556;23;20425;-68
2023/03/17 02:04:20;;;;;;;20.25;6.80;;;;;;;;;;6213935;23;20009;-64
2023/03/17 02:06:48;;;;;;;13.45;6.20;;;;;;;;;;6214018;23;20091;-64
2023/03/17 02:09:14;;;;;;;12.00;6.18;;;;;;;;;;6213821;23;20079;-64
2023/03/17 02:11:40;;;;;;;17.40;5.95;;;;;;;;;;6213712;23;20059;-63
2023/03/17 02:14:07;;;;;;;11.73;5.90;;;;;;;;;;6213402;23;20009;-64
2023/03/17 02:16:33;;;;;;;13.68;6.07;;;;;;;;;;6213631;23;20318;-65
2023/03/17 02:19:00;;;;;;;13.93;6.00;;;;;;;;;;6213346;23;20099;-64
2023/03/17 02:21:42;;;;;;;11.90;5.80;;;;;;;;;;6213495;23;20154;-64
2023/03/17 02:24:12;;;;;;;10.52;5.40;;;;;;;;;;6213491;23;20008;-67
2023/03/17 02:26:38;;;;;;;11.60;6.10;;;;;;;;;;6213362;23;20001;-63
2023/03/17 02:29:05;;;;;;;9.63;5.35;;;;;;;;;;6213224;23;20015;-71
2023/03/17 02:31:31;;;;;;;11.25;5.60;;;;;;;;;;6213836;23;20100;-65
2023/03/17 02:33:57;;;;;;;10.98;5.50;;;;;;;;;;6212976;23;20001;-65
2023/03/17 02:36:24;;;;;;;9.57;5.35;;;;;;;;;;6213513;23;20070;-65
2023/03/17 02:38:50;;;;;;;15.23;6.30;;;;;;;;;;6213267;23;20001;-66
2023/03/17 02:41:16;;;;;;;10.00;5.35;;;;;;;;;;6213153;23;20341;-70
2023/03/17 02:43:42;;;;;;;10.52;5.47;;;;;;;;;;6213440;23;20425;-68
2023/03/17 02:46:08;;;;;;;12.07;5.40;;;;;;;;;;6213635;23;20373;-69
2023/03/17 02:48:35;;;;;;;13.05;5.75;;;;;;;;;;6213145;23;20429;-72
2023/03/17 02:51:01;;;;;;;13.25;5.75;;;;;;;;;;6213048;23;20004;-66
2023/03/17 02:53:27;;;;;;;12.68;5.60;;;;;;;;;;6213246;23;20036;-72
2023/03/17 02:55:53;;;;;;;14.27;6.07;;;;;;;;;;6213315;23;20033;-65
2023/03/17 02:58:19;;;;;;;12.75;5.60;;;;;;;;;;6212768;23;20070;-65
2023/03/17 03:00:47;;;;;;;14.50;5.93;;;;;;;;;;6213107;23;20075;-65
2023/03/17 03:03:13;;;;;;;13.73;6.35;;;;;;;;;;6215599;23;20009;-71
2023/03/17 03:05:40;;;;;;;15.88;6.93;;;;;;;;;;6214093;23;20080;-65
2023/03/17 03:08:06;;;;;;;14.65;6.95;;;;;;;;;;6213279;23;20013;-65
2023/03/17 03:10:32;;;;;;;14.48;6.50;;;;;;;;;;6213078;23;20047;-64
2023/03/17 03:12:58;;;;;;;11.98;6.57;;;;;;;;;;6212870;23;20401;-66
2023/03/17 03:15:24;;;;;;;14.00;7.25;;;;;;;;;;6212950;23;20004;-68
2023/03/17 03:17:51;;;;;;;13.60;6.38;;;;;;;;;;6213547;23;20008;-72
2023/03/17 03:20:17;;;;;;;13.50;6.55;;;;;;;;;;6212555;23;19997;-65
2023/03/17 03:22:43;;;;;;;14.27;7.63;;;;;;;;;;6212987;23;20131;-65
2023/03/17 03:25:09;;;;;;;16.58;7.20;;;;;;;;;;6213083;23;20001;-69
2023/03/17 03:27:35;;;;;;;21.30;8.00;;;;;;;;;;6212996;23;20112;-71
2023/03/17 03:30:01;;;;;;;14.90;8.32;;;;;;;;;;6212709;23;20009;-67
2023/03/17 03:32:28;;;;;;;14.38;7.93;;;;;;;;;;6213144;23;20024;-64
2023/03/17 03:34:54;;;;;;;17.30;8.63;;;;;;;;;;6213022;23;19997;-65
2023/03/17 03:37:21;;;;;;;17.38;8.23;;;;;;;;;;6212722;23;20433;-66
2023/03/17 03:39:47;;;;;;;13.88;7.97;;;;;;;;;;6212540;23;20001;-65
2023/03/17 03:42:13;;;;;;;17.30;8.70;;;;;;;;;;6213027;23;20001;-65
2023/03/17 03:44:39;;;;;;;16.83;8.68;;;;;;;;;;6212773;23;20007;-65
2023/03/17 03:47:06;;;;;;;15.98;7.60;;;;;;;;;;6213106;23;20337;-71
2023/03/17 03:49:32;;;;;;;17.35;8.02;;;;;;;;;;6212491;23;20009;-64
2023/03/17 03:51:58;;;;;;;16.08;7.93;;;;;;;;;;6212937;23;20091;-65
2023/03/17 03:54:24;;;;;;;26.85;8.15;;;;;;;;;;6212703;23;19997;-69
2023/03/17 03:56:50;;;;;;;14.80;7.28;;;;;;;;;;6212896;23;19997;-72
2023/03/17 03:59:16;;;;;;;15.10;7.53;;;;;;;;;;6212490;23;20013;-65
2023/03/17 04:01:42;;;;;;;14.65;7.82;;;;;;;;;;6213075;23;20087;-65
2023/03/17 04:04:08;;;;;;;15.75;8.00;;;;;;;;;;6212871;23;20012;-65
2023/03/17 04:06:34;;;;;;;19.77;8.38;;;;;;;;;;6212733;23;20003;-67
2023/03/17 04:09:01;;;;;;;15.77;7.90;;;;;;;;;;6212711;23;20032;-64
2023/03/17 04:11:27;;;;;;;18.13;9.02;;;;;;;;;;6212842;23;20086;-70
2023/03/17 04:13:53;;;;;;;18.73;9.35;;;;;;;;;;6214543;23;20376;-65
2023/03/17 04:16:19;;;;;;;22.40;9.95;;;;;;;;;;6214862;23;20000;-65
2023/03/17 04:18:45;;;;;;;18.77;9.95;;;;;;;;;;6214937;23;20009;-64
2023/03/17 04:21:12;;;;;;;16.40;8.18;;;;;;;;;;6214179;23;20106;-71
2023/03/17 04:23:38;;;;;;;18.60;9.40;;;;;;;;;;6214321;23;20059;-65
2023/03/17 04:26:04;;;;;;;25.60;9.60;;;;;;;;;;6214859;23;20008;-67
2023/03/17 04:28:31;;;;;;;22.50;9.90;;;;;;;;;;6214610;23;20063;-65
2023/03/17 04:30:57;;;;;;;16.80;10.15;;;;;;;;;;6214052;23;20009;-71
2023/03/17 04:33:23;;;;;;;24.75;10.57;;;;;;;;;;6187491;23;20319;-64
2023/03/17 04:35:49;;;;;;;19.63;10.07;;;;;;;;;;6214032;23;20007;-65
2023/03/17 04:38:15;;;;;;;19.35;9.30;;;;;;;;;;6214286;23;20009;-64
2023/03/17 04:40:41;;;;;;;18.38;9.35;;;;;;;;;;6214581;23;20000;-64
2023/03/17 04:43:09;;;;;;;21.85;9.75;;;;;;;;;;6214294;23;20574;-65
2023/03/17 04:45:35;;;;;;;20.60;9.88;;;;;;;;;;6214793;23;20036;-65
2023/03/17 04:48:01;;;;;;;21.80;10.70;;;;;;;;;;6213829;23;20005;-71
2023/03/17 04:50:27;;;;;;;23.33;9.45;;;;;;;;;;6213927;23;20001;-66
2023/03/17 04:52:53;;;;;;;22.15;10.70;;;;;;;;;;6213918;23;20013;-66
2023/03/17 04:55:19;;;;;;;22.05;9.48;;;;;;;;;;6213976;23;20000;-64
2023/03/17 04:57:46;;;;;;;25.88;10.40;;;;;;;;;;6214504;23;20005;-71
2023/03/17 05:00:14;;;;;;;28.60;10.30;;;;;;;;;;6214195;23;20051;-64
2023/03/17 05:02:40;;;;;;;22.13;10.35;;;;;;;;;;6214398;23;20036;-64
2023/03/17 05:05:06;;;;;;;23.63;10.75;;;;;;;;;;6214372;23;20001;-65
2023/03/17 05:07:32;;;;;;;24.27;10.63;;;;;;;;;;6213899;23;20090;-68
2023/03/17 05:09:58;;;;;;;28.58;12.48;;;;;;;;;;6213958;23;19997;-64
2023/03/17 05:12:24;;;;;;;31.88;12.35;;;;;;;;;;6213920;23;20020;-64
2023/03/17 05:14:50;;;;;;;28.48;13.35;;;;;;;;;;6214013;23;20012;-68
2023/03/17 05:17:16;;;;;;;36.22;13.25;;;;;;;;;;6214419;23;20009;-64
2023/03/17 05:19:43;;;;;;;31.00;13.60;;;;;;;;;;6213632;23;20095;-64
2023/03/17 05:22:09;;;;;;;29.98;13.30;;;;;;;;;;6213664;23;20589;-64
2023/03/17 05:24:35;;;;;;;34.70;12.73;;;;;;;;;;6213406;23;20016;-67
2023/03/17 05:27:02;;;;;;;47.78;20.17;;;;;;;;;;6214210;23;20028;-63
2023/03/17 05:29:28;;;;;;;61.40;35.28;;;;;;;;;;6213752;23;20011;-64
2023/03/17 05:31:54;;;;;;;66.57;37.60;;;;;;;;;;6213837;23;20436;-66
2023/03/17 05:34:21;;;;;;;41.80;24.20;;;;;;;;;;6214106;23;19996;-67
2023/03/17 05:36:47;;;;;;;35.78;21.05;;;;;;;;;;6214226;23;20087;-66
2023/03/17 05:39:13;;;;;;;35.63;19.40;;;;;;;;;;6213920;23;20008;-66
2023/03/17 05:41:39;;;;;;;25.20;12.90;;;;;;;;;;6213844;23;20001;-67
2023/03/17 05:44:05;;;;;;;20.10;10.25;;;;;;;;;;6213669;23;20364;-69
2023/03/17 05:46:31;;;;;;;22.58;10.75;;;;;;;;;;6213823;23;20409;-66
2023/03/17 05:48:57;;;;;;;21.30;10.40;;;;;;;;;;6213524;23;20001;-66
2023/03/17 05:51:23;;;;;;;24.40;10.65;;;;;;;;;;6213317;23;20727;-66
2023/03/17 05:53:49;;;;;;;19.42;9.80;;;;;;;;;;6213493;23;19997;-66
2023/03/17 05:56:16;;;;;;;19.17;9.95;;;;;;;;;;6213259;23;20009;-66
2023/03/17 05:58:42;;;;;;;18.38;10.30;;;;;;;;;;6212696;23;20007;-73
2023/03/17 06:01:08;;;;;;;20.48;10.70;;;;;;;;;;6213067;23;20012;-67
2023/03/17 06:03:37;;;;;;;20.88;10.23;;;;;;;;;;6213226;23;20032;-65
2023/03/17 06:06:03;;;;;;;23.20;10.38;;;;;;;;;;6213479;23;19996;-66
2023/03/17 06:08:29;;;;;;;25.48;12.90;;;;;;;;;;6213475;23;20005;-66
2023/03/17 06:10:55;;;;;;;19.70;10.30;;;;;;;;;;6213130;23;20004;-66
2023/03/17 06:13:21;;;;;;;20.42;9.60;;;;;;;;;;6213318;23;20005;-66
2023/03/17 06:15:48;;;;;;;18.13;9.45;;;;;;;;;;6213590;23;19996;-66
2023/03/17 06:18:14;;;;;;;22.95;10.25;;;;;;;;;;6213543;23;20013;-69
2023/03/17 06:20:40;;;;;;;20.63;9.65;;;;;;;;;;6212848;23;20059;-64
2023/03/17 06:23:07;;;;;;;20.05;9.77;;;;;;;;;;6213088;23;20108;-66
2023/03/17 06:25:33;;;;;;;19.05;9.52;;;;;;;;;;6213226;23;20507;-72
2023/03/17 06:28:01;;;;;;;18.42;9.95;;;;;;;;;;6213079;23;20004;-65
2023/03/17 06:30:27;;;;;;;23.27;12.80;;;;;;;;;;6213280;23;20050;-66
2023/03/17 06:32:53;;;;;;;20.30;9.15;;;;;;;;;;6213357;23;20063;-67
2023/03/17 06:35:19;;;;;;;16.73;8.93;;;;;;;;;;6212974;23;20364;-66
2023/03/17 06:37:45;;;;;;;19.25;8.75;;;;;;;;;;6212958;23;20008;-64
2023/03/17 06:40:12;;;;;;;20.95;8.38;;;;;;;;;;6212662;23;20428;-66
2023/03/17 06:42:38;;;;;;;18.88;9.90;;;;;;;;;;6213291;23;20001;-69
2023/03/17 06:45:04;;;;;;;19.73;9.60;;;;;;;;;;6213301;23;20018;-66
2023/03/17 06:47:30;;;;;;;21.42;10.00;;;;;;;;;;6212975;23;20326;-65
2023/03/17 06:49:56;;;;;;;19.60;9.68;;;;;;;;;;6212914;23;20000;-66
2023/03/17 06:52:22;;;;;;;19.48;9.18;;;;;;;;;;6212874;23;20395;-65
2023/03/17 06:54:48;;;;;;;20.58;9.75;;;;;;;;;;6212866;23;20028;-66
2023/03/17 06:57:14;;;;;;;20.73;9.77;;;;;;;;;;6213811;23;20062;-65
2023/03/17 06:59:40;;;;;;;21.73;8.95;;;;;;;;;;6212640;23;19997;-65
2023/03/17 07:02:06;;;;;;;18.98;9.18;;;;;;;;;;6213119;23;20029;-65
2023/03/17 07:04:36;;;;;;;18.55;9.02;;;;;;;;;;6212935;23;20306;-66
2023/03/17 07:07:04;;;;;;;20.63;10.55;;;;;;;;;;6213041;23;20001;-72
2023/03/17 07:09:30;;;;;;;18.30;8.65;;;;;;;;;;6213050;23;20104;-68
2023/03/17 07:11:56;;;;;;;17.92;8.60;;;;;;;;;;6212296;23;20020;-64
2023/03/17 07:14:22;;;;;;;16.00;8.10;;;;;;;;;;6213364;23;20344;-64
2023/03/17 07:16:48;;;;;;;14.88;7.97;;;;;;;;;;6212750;23;20013;-65
2023/03/17 07:19:15;;;;;;;15.98;7.65;;;;;;;;;;6212621;23;20076;-65
2023/03/17 07:21:41;;;;;;;16.83;8.20;;;;;;;;;;6212913;23;20055;-65
2023/03/17 07:24:08;;;;;;;19.17;8.50;;;;;;;;;;6212754;23;20000;-66
2023/03/17 07:26:34;;;;;;;14.60;7.88;;;;;;;;;;6212783;23;20007;-67
2023/03/17 07:29:00;;;;;;;15.75;7.45;;;;;;;;;;6185979;23;20385;-65
2023/03/17 07:31:27;;;;;;;17.17;8.25;;;;;;;;;;6212572;23;20348;-72
2023/03/17 07:33:53;;;;;;;14.55;7.25;;;;;;;;;;6212867;23;19997;-65
2023/03/17 07:36:19;;;;;;;15.00;7.20;;;;;;;;;;6212962;23;20004;-66
2023/03/17 07:38:45;;;;;;;13.40;7.22;;;;;;;;;;6213090;23;20001;-65
2023/03/17 07:41:12;;;;;;;15.23;6.70;;;;;;;;;;6211723;23;19996;-66
2023/03/17 07:43:38;;;;;;;14.15;6.80;;;;;;;;;;6212127;23;20078;-65
2023/03/17 07:46:04;;;;;;;13.50;7.15;;;;;;;;;;6212571;23;20000;-66
2023/03/17 07:48:32;;;;;;;16.35;7.63;;;;;;;;;;6213418;23;20016;-65
2023/03/17 07:50:58;;;;;;;12.57;7.20;;;;;;;;;;6214532;23;20001;-65
2023/03/17 07:53:25;;;;;;;15.38;7.60;;;;;;;;;;6214789;23;20009;-71
2023/03/17 07:55:51;;;;;;;16.05;6.75;;;;;;;;;;6214721;23;19996;-66
2023/03/17 07:58:17;;;;;;;15.68;8.55;;;;;;;;;;6214619;23;20032;-66
2023/03/17 08:00:43;;;;;;;16.13;8.40;;;;;;;;;;6214142;23;20005;-65
2023/03/17 08:03:09;;;;;;;14.90;7.28;;;;;;;;;;6214724;23;20013;-66
2023/03/17 08:05:35;;;;;;;14.70;7.78;;;;;;;;;;6214664;23;20425;-67
2023/03/17 08:08:01;;;;;;;18.02;8.52;;;;;;;;;;6214531;23;20000;-68
2023/03/17 08:10:27;;;;;;;13.13;6.95;;;;;;;;;;6214713;23;20009;-68
2023/03/17 08:12:53;;;;;;;15.48;7.85;;;;;;;;;;6214647;23;20108;-66
2023/03/17 08:15:20;;;;;;;16.52;8.25;;;;;;;;;;6214255;23;20027;-65
2023/03/17 08:17:47;;;;;;;17.77;8.65;;;;;;;;;;6214742;23;20310;-66
2023/03/17 08:20:13;;;;;;;15.80;8.57;;;;;;;;;;6213835;23;20020;-65
2023/03/17 08:22:39;;;;;;;17.55;8.57;;;;;;;;;;6214688;23;20310;-65
2023/03/17 08:25:06;;;;;;;15.48;7.97;;;;;;;;;;6214753;23;20009;-65
2023/03/17 08:27:32;;;;;;;19.35;8.90;;;;;;;;;;6213770;23;20009;-66
2023/03/17 08:29:58;;;;;;;20.70;9.00;;;;;;;;;;6212635;23;20091;-66
2023/03/17 08:32:24;;;;;;;17.60;8.00;;;;;;;;;;6213696;23;20052;-66
2023/03/17 08:34:52;;;;;;;15.25;7.85;;;;;;;;;;6214056;23;20004;-66
2023/03/17 08:37:19;;;;;;;18.50;8.93;;;;;;;;;;6214270;23;20016;-65
2023/03/17 08:39:45;;;;;;;17.02;8.63;;;;;;;;;;6214622;23;20012;-65
2023/03/17 08:42:11;;;;;;;20.45;8.45;;;;;;;;;;6214175;23;20008;-65
2023/03/17 08:44:37;;;;;;;17.75;9.45;;;;;;;;;;6214226;23;20005;-65
2023/03/17 08:47:04;;;;;;;22.48;9.82;;;;;;;;;;6214391;23;20016;-71
2023/03/17 08:49:33;;;;;;;16.00;8.85;;;;;;;;;;6212111;23;20296;-64
2023/03/17 08:52:00;;;;;;;21.27;10.43;;;;;;;;;;6212489;23;20016;-72
2023/03/17 08:54:26;;;;;;;19.70;9.43;;;;;;;;;;6213833;23;20447;-68
2023/03/17 08:56:52;;;;;;;17.85;9.43;;;;;;;;;;6213921;23;20008;-69
2023/03/17 08:59:19;;;;;;;17.17;8.30;;;;;;;;;;6213317;23;20007;-65
2023/03/17 09:01:45;;;;;;;19.20;8.85;;;;;;;;;;6212948;23;20471;-68
2023/03/17 09:04:12;;;;;;;17.65;8.52;;;;;;;;;;6213166;23;20356;-66
2023/03/17 09:06:38;;;;;;;15.98;8.65;;;;;;;;;;6213726;23;20001;-65
2023/03/17 09:09:04;;;;;;;13.80;8.65;;;;;;;;;;6213014;23;19997;-70
2023/03/17 09:11:31;;;;;;;16.98;8.02;;;;;;;;;;6212174;23;20047;-70
2023/03/17 09:13:58;;;;;;;20.42;8.45;;;;;;;;;;6213898;23;20080;-66
2023/03/17 09:16:25;;;;;;;16.17;8.25;;;;;;;;;;6213723;23;20047;-71
2023/03/17 09:18:52;;;;;;;19.40;8.18;;;;;;;;;;6213604;23;19997;-66
2023/03/17 09:21:18;;;;;;;16.00;8.40;;;;;;;;;;6212910;23;20032;-66
2023/03/17 09:23:44;;;;;;;15.52;7.75;;;;;;;;;;6213225;23;20329;-65
2023/03/17 09:26:11;;;;;;;17.08;8.43;;;;;;;;;;6212943;23;20013;-68
2023/03/17 09:28:37;;;;;;;18.35;9.07;;;;;;;;;;6213253;23;20001;-66
2023/03/17 09:31:06;;;;;;;19.27;9.75;;;;;;;;;;6212984;23;20126;-66
2023/03/17 09:33:32;;;;;;;18.17;9.52;;;;;;;;;;6213444;23;20434;-66
2023/03/17 09:35:58;;;;;;;17.48;8.75;;;;;;;;;;6213199;23;20004;-65
2023/03/17 09:38:26;;;;;;;19.00;9.48;;;;;;;;;;6213405;23;20294;-71
2023/03/17 09:41:11;;;;;;;17.35;8.05;;;;;;;;;;6213597;23;20051;-67
2023/03/17 09:43:55;;;;;;;16.35;8.80;;;;;;;;;;6212649;23;20005;-70
2023/03/17 09:46:22;;;;;;;19.17;8.82;;;;;;;;;;6211943;23;20005;-70
2023/03/17 09:48:54;;;;;;;16.88;8.85;;;;;;;;;;6212325;23;20011;-68
2023/03/17 09:51:21;;;;;;;22.77;9.50;;;;;;;;;;6211537;23;20429;-70
2023/03/17 09:53:58;;;;;;;24.60;9.80;;;;;;;;;;6212521;23;20001;-65
2023/03/17 09:56:26;;;;;;;16.10;8.27;;;;;;;;;;6212633;23;20032;-71
2023/03/17 09:58:53;;;;;;;17.52;8.85;;;;;;;;;;6212647;23;20105;-66
2023/03/17 10:01:20;;;;;;;22.42;10.80;;;;;;;;;;6211915;23;20008;-68
2023/03/17 10:03:46;;;;;;;20.65;9.68;;;;;;;;;;6212882;23;20084;-67
2023/03/17 10:06:13;;;;;;;16.33;8.88;;;;;;;;;;6212302;23;20005;-69
2023/03/17 10:08:40;;;;;;;18.63;8.38;;;;;;;;;;6210944;23;20111;-66
2023/03/17 10:11:26;;;;;;;14.45;7.80;;;;;;;;;;6211464;23;20463;-69
2023/03/17 10:14:04;;;;;;;17.50;8.25;;;;;;;;;;6212121;23;19996;-68
2023/03/17 10:16:33;;;;;;;16.25;8.35;;;;;;;;;;6212148;23;20016;-69
2023/03/17 10:19:06;;;;;;;15.25;7.95;;;;;;;;;;6212383;23;20004;-65
2023/03/17 10:21:33;;;;;;;13.88;8.00;;;;;;;;;;6212702;23;20039;-71
2023/03/17 10:24:00;;;;;;;16.25;8.48;;;;;;;;;;6212649;23;19993;-71
2023/03/17 10:26:31;;;;;;;23.02;8.50;;;;;;;;;;6212740;23;20015;-69
2023/03/17 10:29:02;;;;;;;16.30;8.55;;;;;;;;;;6213177;23;20007;-66
2023/03/17 10:31:28;;;;;;;17.00;7.97;;;;;;;;;;6212574;23;20016;-71
2023/03/17 10:33:56;;;;;;;15.68;8.30;;;;;;;;;;6212625;23;20047;-68
2023/03/17 10:36:33;;;;;;;16.15;8.60;;;;;;;;;;6212541;23;20001;-67
2023/03/17 10:39:04;;;;;;;15.45;8.50;;;;;;;;;;6212892;23;20146;-67
2023/03/17 10:41:31;;;;;;;15.90;6.93;;;;;;;;;;6212618;23;20447;-66
2023/03/17 10:43:58;;;;;;;18.08;8.52;;;;;;;;;;6212734;23;20008;-72
2023/03/17 10:46:24;;;;;;;12.98;7.00;;;;;;;;;;6212989;23;20004;-72
2023/03/17 10:48:52;;;;;;;13.85;6.25;;;;;;;;;;6212584;23;20004;-66
2023/03/17 10:51:21;;;;;;;13.18;6.72;;;;;;;;;;6213002;23;20018;-66
2023/03/17 10:53:52;;;;;;;14.80;7.80;;;;;;;;;;6212740;23;20004;-66
2023/03/17 10:56:22;;;;;;;22.13;8.23;;;;;;;;;;6212238;23;20000;-67
2023/03/17 10:58:49;;;;;;;13.25;6.82;;;;;;;;;;6212308;23;20028;-67
2023/03/17 11:01:16;;;;;;;19.20;7.70;;;;;;;;;;6212557;23;20084;-67
2023/03/17 11:03:43;;;;;;;16.60;7.32;;;;;;;;;;6212696;23;20000;-67
2023/03/17 11:06:13;;;;;;;18.98;7.20;;;;;;;;;;6212526;23;20000;-67
2023/03/17 11:08:47;;;;;;;14.70;7.07;;;;;;;;;;6212401;23;20357;-66
2023/03/17 11:11:28;;;;;;;11.35;6.13;;;;;;;;;;6212997;23;20080;-67
2023/03/17 11:14:01;;;;;;;10.32;6.40;;;;;;;;;;6212395;23;20441;-68
2023/03/17 11:16:28;;;;;;;13.75;6.82;;;;;;;;;;6212752;23;20008;-72
2023/03/17 11:18:56;;;;;;;12.82;6.68;;;;;;;;;;6212442;23;20032;-71
2023/03/17 11:21:25;;;;;;;11.55;6.85;;;;;;;;;;6211176;23;20388;-67
2023/03/17 11:24:09;;;;;;;18.25;8.35;;;;;;;;;;6211409;23;20429;-66
2023/03/17 11:26:45;;;;;;;14.73;7.15;;;;;;;;;;6211765;23;20016;-71
2023/03/17 11:29:21;;;;;;;11.63;6.20;;;;;;;;;;6212691;23;20077;-67
2023/03/17 11:31:54;;;;;;;14.68;7.68;;;;;;;;;;6212306;23;20023;-66
2023/03/17 11:34:23;;;;;;;12.43;5.05;;;;;;;;;;6211920;23;20001;-66
2023/03/17 11:36:57;;;;;;;11.18;5.47;;;;;;;;;;6212568;23;20024;-67
2023/03/17 11:39:27;;;;;;;9.65;5.60;;;;;;;;;;6212491;23;20004;-71
2023/03/17 11:41:53;;;;;;;10.63;5.25;;;;;;;;;;6212111;23;20027;-66
2023/03/17 11:44:19;;;;;;;12.90;5.63;;;;;;;;;;6212599;23;20417;-71
2023/03/17 11:47:00;;;;;;;13.07;6.10;;;;;;;;;;6212556;23;20487;-67
2023/03/17 11:49:37;;;;;;;8.70;4.15;;;;;;;;;;6212412;23;20015;-66
2023/03/17 11:52:20;;;;;;;7.15;3.53;;;;;;;;;;6211515;23;20020;-66
2023/03/17 11:55:16;;;;;;;7.22;3.80;;;;;;;;;;6212451;23;20013;-67
2023/03/17 11:57:55;;;;;;;6.15;2.88;;;;;;;;;;6149450;23;20068;-67
2023/03/17 12:00:36;;;;;;;6.63;3.08;;;;;;;;;;6149629;23;20094;-67
2023/03/17 12:03:07;;;;;;;5.82;2.80;;;;;;;;;;6148883;23;20433;-68
2023/03/17 12:05:34;;;;;;;6.40;3.50;;;;;;;;;;6148919;23;20065;-67
2023/03/17 12:08:02;;;;;;;7.15;3.65;;;;;;;;;;6149417;23;20012;-67
2023/03/17 12:10:29;;;;;;;7.75;3.50;;;;;;;;;;6149411;23;20430;-68
2023/03/17 12:12:59;;;;;;;35.85;17.52;;;;;;;;;;6149528;23;20024;-68
2023/03/17 12:15:35;;;;;;;13.70;5.57;;;;;;;;;;6149847;23;20088;-68
2023/03/17 12:18:06;;;;;;;7.28;2.92;;;;;;;;;;6148758;23;20001;-68
2023/03/17 12:20:35;;;;;;;5.68;2.72;;;;;;;;;;6153833;23;20385;-66
2023/03/17 12:23:13;;;;;;;5.22;3.00;;;;;;;;;;6178474;23;20433;-67
2023/03/17 12:25:51;;;;;;;6.07;3.40;;;;;;;;;;6179282;23;20009;-68
2023/03/17 12:28:19;;;;;;;5.50;2.90;;;;;;;;;;6178480;23;20047;-67
2023/03/17 12:30:53;;;;;;;5.65;3.15;;;;;;;;;;6152905;23;20489;-67
2023/03/17 12:33:28;;;;;;;7.43;3.05;;;;;;;;;;6184750;23;20016;-67
2023/03/17 12:35:55;;;;;;;7.47;3.22;;;;;;;;;;6214410;23;19996;-67
2023/03/17 12:38:27;;;;;;;6.90;3.25;;;;;;;;;;6214316;23;20009;-68
2023/03/17 12:41:02;;;;;;;5.97;3.15;;;;;;;;;;6214395;23;20368;-67
2023/03/17 12:43:28;;;;;;;8.57;3.30;;;;;;;;;;6214036;23;20000;-65
2023/03/17 12:45:57;;;;;;;6.45;3.28;;;;;;;;;;6214643;23;20007;-66
2023/03/17 12:48:41;;;;;;;5.95;3.22;;;;;;;;;;6214870;23;20005;-68
2023/03/17 12:51:13;;;;;;;5.68;3.05;;;;;;;;;;6213969;23;20028;-69
2023/03/17 12:53:44;;;;;;;5.25;3.05;;;;;;;;;;6213508;23;20339;-69
2023/03/17 12:56:30;;;;;;;6.72;3.35;;;;;;;;;;6213616;23;20357;-66
2023/03/17 12:59:01;;;;;;;11.80;5.07;;;;;;;;;;6213057;23;20004;-67
2023/03/17 13:01:38;;;;;;;8.50;4.53;;;;;;;;;;6213671;23;20028;-67
2023/03/17 13:04:25;;;;;;;10.65;5.50;;;;;;;;;;6214230;23;20004;-67
2023/03/17 13:06:57;;;;;;;7.53;3.95;;;;;;;;;;6212888;23;20015;-70
2023/03/17 13:09:23;;;;;;;;;;;;;;;;;;6210134;23;20024;-68
2023/03/17 13:11:49;;;;;;;10.65;4.60;;;;;;;;;;6213661;23;20232;-68
2023/03/17 13:14:27;;;;;;;9.05;4.22;;;;;;;;;;6213406;23;20008;-69
2023/03/17 13:17:04;;;;;;;11.15;5.78;;;;;;;;;;6212981;23;20672;-66
2023/03/17 13:19:33;;;;;;;9.35;4.85;;;;;;;;;;6213113;23;20008;-67
2023/03/17 13:21:59;;;;;;;11.52;4.93;;;;;;;;;;6211088;23;20016;-67
2023/03/17 13:24:35;;;;;;;8.35;4.07;;;;;;;;;;6213705;23;20005;-66
2023/03/17 13:27:03;;;;;;;7.93;4.03;;;;;;;;;;6213233;23;20008;-67
2023/03/17 13:29:32;;;;;;;6.80;3.85;;;;;;;;;;6213662;23;20471;-66
2023/03/17 13:32:17;;;;;;;7.68;4.03;;;;;;;;;;6213611;23;20009;-67
2023/03/17 13:34:48;;;;;;;7.28;4.05;;;;;;;;;;6213515;23;20005;-65
2023/03/17 13:37:24;;;;;;;10.55;4.50;;;;;;;;;;6213910;23;20017;-67
2023/03/17 13:39:53;;;;;;;8.52;4.57;;;;;;;;;;6213563;23;20005;-67
2023/03/17 13:42:25;;;;;;;8.15;4.68;;;;;;;;;;6213446;23;20333;-67
2023/03/17 13:44:51;;;;;;;;;;;;;;;;;;6213787;23;20083;-68
2023/03/17 13:47:24;;;;;;;10.32;4.45;;;;;;;;;;6207693;23;19971;-66
2023/03/17 13:49:51;;;;;;;8.15;4.30;;;;;;;;;;6213231;23;20076;-69
2023/03/17 13:52:30;;;;;;;7.28;4.03;;;;;;;;;;6213198;23;20056;-67
2023/03/17 13:55:15;;;;;;;8.23;4.50;;;;;;;;;;6213185;23;20494;-68
2023/03/17 13:57:41;;;;;;;7.15;3.67;;;;;;;;;;6213297;23;20008;-65
2023/03/17 14:00:26;;;;;;;7.13;3.40;;;;;;;;;;6212449;23;20016;-70
2023/03/17 14:03:01;;;;;;;7.18;3.60;;;;;;;;;;6213406;23;20011;-65
2023/03/17 14:05:29;;;;;;;8.35;3.67;;;;;;;;;;6211901;23;20012;-66
2023/03/17 14:08:00;;;;;;;6.65;3.67;;;;;;;;;;6212742;23;20001;-66
2023/03/17 14:10:28;;;;;;;5.45;3.15;;;;;;;;;;6213139;23;20004;-67
2023/03/17 14:13:12;;;;;;;8.68;3.60;;;;;;;;;;6213356;23;20024;-69
2023/03/17 14:15:48;;;;;;;7.57;3.55;;;;;;;;;;6185679;23;20360;-68
2023/03/17 14:18:16;;;;;;;7.43;3.53;;;;;;;;;;6211952;23;20005;-64
2023/03/17 14:20:52;;;;;;;7.30;3.47;;;;;;;;;;6211199;23;20020;-65
2023/03/17 14:23:18;;;;;;;6.82;3.75;;;;;;;;;;6212384;23;20004;-65
2023/03/17 14:25:44;;;;;;;7.57;3.42;;;;;;;;;;6212863;23;20011;-65
2023/03/17 14:28:13;;;;;;;7.38;3.63;;;;;;;;;;6212338;23;20008;-65
2023/03/17 14:30:39;;;;;;;5.97;3.13;;;;;;;;;;6211201;23;20008;-64
2023/03/17 14:33:09;;;;;;;6.03;3.33;;;;;;;;;;6212534;23;20401;-64
2023/03/17 14:35:41;;;;;;;6.78;3.10;;;;;;;;;;6211598;23;20317;-65
2023/03/17 14:38:24;;;;;;;5.65;2.95;;;;;;;;;;6212721;23;20063;-64